Terminal Aerodrome Forecast
Issued by NWS Portland, OR

Home | Current Version | Previous Version | Text Only | Print | Product List | Glossary On
Versions: 1 2 3 4 5 6 7 8 9 10 11 12 13 14 15 16 17
000
FTUS46 KPQR 171152
TAFTTD
TAF
KTTD 171152Z 1712/1812 09018G26KT P6SM -RA OVC070
     FM171500 09020G28KT P6SM OVC200
     FM172300 09019G26KT P6SM -RA BKN050 OVC080
     FM180400 14009KT P6SM -RA OVC050
     FM180800 21010KT P6SM -SHRA SCT015 BKN025 BKN040=

USA.gov is the U.S. government's official web portal to all federal, state and local government web resources and services.